sensor_id;sensor_type;location;lat;lon;timestamp;pressure;altitude;pressure_sealevel;temperature;humidity
77092;BME280;66032;48.252;11.638;2023-03-03T00:01:05;96084.69;;;-0.09;90.78
77092;BME280;66032;48.252;11.638;2023-03-03T00:03:32;96083.94;;;-0.11;90.81
77092;BME280;66032;48.252;11.638;2023-03-03T00:06:02;96079.75;;;-0.14;90.92
77092;BME280;66032;48.252;11.638;2023-03-03T00:08:31;96079.81;;;-0.15;90.92
77092;BME280;66032;48.252;11.638;2023-03-03T00:10:58;96077.13;;;-0.14;90.40
77092;BME280;66032;48.252;11.638;2023-03-03T00:13:27;96078.66;;;-0.10;90.14
77092;BME280;66032;48.252;11.638;2023-03-03T00:16:21;96068.03;;;-0.07;90.18
77092;BME280;66032;48.252;11.638;2023-03-03T00:18:50;96081.06;;;-0.07;90.44
77092;BME280;66032;48.252;11.638;2023-03-03T00:21:41;96073.25;;;-0.07;90.10
77092;BME280;66032;48.252;11.638;2023-03-03T00:24:20;96077.81;;;-0.10;90.11
77092;BME280;66032;48.252;11.638;2023-03-03T00:26:52;96075.66;;;-0.18;90.33
77092;BME280;66032;48.252;11.638;2023-03-03T00:29:36;96077.59;;;-0.21;90.61
77092;BME280;66032;48.252;11.638;2023-03-03T00:34:43;96076.34;;;-0.30;90.95
77092;BME280;66032;48.252;11.638;2023-03-03T00:37:34;96078.13;;;-0.30;90.96
77092;BME280;66032;48.252;11.638;2023-03-03T00:40:22;96078.28;;;-0.33;91.31
77092;BME280;66032;48.252;11.638;2023-03-03T00:42:56;96082.75;;;-0.35;91.33
77092;BME280;66032;48.252;11.638;2023-03-03T00:45:30;96083.69;;;-0.36;91.43
77092;BME280;66032;48.252;11.638;2023-03-03T00:47:58;96082.00;;;-0.38;91.46
77092;BME280;66032;48.252;11.638;2023-03-03T00:50:34;96082.00;;;-0.38;91.41
77092;BME280;66032;48.252;11.638;2023-03-03T00:53:04;96082.84;;;-0.37;91.41
77092;BME280;66032;48.252;11.638;2023-03-03T00:55:33;96087.28;;;-0.39;91.47
77092;BME280;66032;48.252;11.638;2023-03-03T00:58:01;96081.94;;;-0.36;90.98
77092;BME280;66032;48.252;11.638;2023-03-03T01:00:34;96088.63;;;-0.32;90.84
77092;BME280;66032;48.252;11.638;2023-03-03T01:03:12;96085.38;;;-0.35;90.64
77092;BME280;66032;48.252;11.638;2023-03-03T01:05:41;96087.22;;;-0.38;89.81
77092;BME280;66032;48.252;11.638;2023-03-03T01:08:08;96084.63;;;-0.38;89.76
77092;BME280;66032;48.252;11.638;2023-03-03T01:10:39;96085.63;;;-0.40;89.94
77092;BME280;66032;48.252;11.638;2023-03-03T01:13:07;96087.50;;;-0.42;90.49
77092;BME280;66032;48.252;11.638;2023-03-03T01:15:37;96083.38;;;-0.46;90.64
77092;BME280;66032;48.252;11.638;2023-03-03T01:18:06;96081.03;;;-0.51;90.66
77092;BME280;66032;48.252;11.638;2023-03-03T01:20:33;96078.44;;;-0.51;90.59
77092;BME280;66032;48.252;11.638;2023-03-03T01:23:00;96074.25;;;-0.53;90.58
77092;BME280;66032;48.252;11.638;2023-03-03T01:25:28;96077.84;;;-0.56;90.62
77092;BME280;66032;48.252;11.638;2023-03-03T01:27:56;96068.03;;;-0.51;90.35
77092;BME280;66032;48.252;11.638;2023-03-03T01:30:23;96067.91;;;-0.49;90.14
77092;BME280;66032;48.252;11.638;2023-03-03T01:32:51;96067.84;;;-0.48;90.16
77092;BME280;66032;48.252;11.638;2023-03-03T01:35:19;96067.00;;;-0.48;90.53
77092;BME280;66032;48.252;11.638;2023-03-03T01:37:47;96069.50;;;-0.47;90.10
77092;BME280;66032;48.252;11.638;2023-03-03T01:40:19;96074.81;;;-0.48;89.98
77092;BME280;66032;48.252;11.638;2023-03-03T01:42:47;96064.66;;;-0.53;89.70
77092;BME280;66032;48.252;11.638;2023-03-03T01:45:24;96064.75;;;-0.54;89.76
77092;BME280;66032;48.252;11.638;2023-03-03T01:48:04;96068.28;;;-0.55;90.15
77092;BME280;66032;48.252;11.638;2023-03-03T01:50:41;96070.13;;;-0.57;89.98
77092;BME280;66032;48.252;11.638;2023-03-03T01:53:22;96062.22;;;-0.56;89.94
77092;BME280;66032;48.252;11.638;2023-03-03T01:55:54;96061.31;;;-0.55;90.26
77092;BME280;66032;48.252;11.638;2023-03-03T01:58:32;96069.28;;;-0.58;90.73
77092;BME280;66032;48.252;11.638;2023-03-03T02:01:06;96066.88;;;-0.61;90.95
77092;BME280;66032;48.252;11.638;2023-03-03T02:03:35;96066.19;;;-0.64;91.26
77092;BME280;66032;48.252;11.638;2023-03-03T02:06:05;96069.78;;;-0.67;91.59
77092;BME280;66032;48.252;11.638;2023-03-03T02:09:23;96069.91;;;-0.68;91.87
77092;BME280;66032;48.252;11.638;2023-03-03T02:11:32;96074.44;;;-0.72;92.02
77092;BME280;66032;48.252;11.638;2023-03-03T02:14:01;96078.88;;;-0.74;92.15
77092;BME280;66032;48.252;11.638;2023-03-03T02:16:28;96079.16;;;-0.79;92.10
77092;BME280;66032;48.252;11.638;2023-03-03T02:18:56;96079.22;;;-0.80;92.36
77092;BME280;66032;48.252;11.638;2023-03-03T02:21:24;96075.88;;;-0.82;92.57
77092;BME280;66032;48.252;11.638;2023-03-03T02:26:38;96075.22;;;-0.86;92.47
77092;BME280;66032;48.252;11.638;2023-03-03T02:29:09;96069.25;;;-0.88;92.72
77092;BME280;66032;48.252;11.638;2023-03-03T02:31:39;96061.38;;;-0.86;92.94
77092;BME280;66032;48.252;11.638;2023-03-03T02:34:06;96067.22;;;-0.83;93.15
77092;BME280;66032;48.252;11.638;2023-03-03T02:36:36;96053.47;;;-0.85;93.18
77092;BME280;66032;48.252;11.638;2023-03-03T02:44:31;96054.97;;;-0.81;92.96
77092;BME280;66032;48.252;11.638;2023-03-03T02:46:59;96050.59;;;-0.80;92.40
77092;BME280;66032;48.252;11.638;2023-03-03T02:49:30;96055.47;;;-0.74;91.63
77092;BME280;66032;48.252;11.638;2023-03-03T02:51:59;96057.81;;;-0.69;91.26
77092;BME280;66032;48.252;11.638;2023-03-03T02:54:28;96061.25;;;-0.69;90.99
77092;BME280;66032;48.252;11.638;2023-03-03T02:57:01;96063.50;;;-0.63;90.84
77092;BME280;66032;48.252;11.638;2023-03-03T02:59:29;96067.72;;;-0.60;91.09
77092;BME280;66032;48.252;11.638;2023-03-03T03:02:04;96065.28;;;-0.63;90.41
77092;BME280;66032;48.252;11.638;2023-03-03T03:04:33;96069.63;;;-0.64;90.32
77092;BME280;66032;48.252;11.638;2023-03-03T03:07:01;96062.59;;;-0.62;91.08
77092;BME280;66032;48.252;11.638;2023-03-03T03:09:31;96059.97;;;-0.62;90.52
77092;BME280;66032;48.252;11.638;2023-03-03T03:11:58;96062.97;;;-0.54;90.97
77092;BME280;66032;48.252;11.638;2023-03-03T03:14:31;96062.47;;;-0.45;91.08
77092;BME280;66032;48.252;11.638;2023-03-03T03:16:58;96071.31;;;-0.33;91.63
77092;BME280;66032;48.252;11.638;2023-03-03T03:19:26;96070.63;;;-0.21;92.14
77092;BME280;66032;48.252;11.638;2023-03-03T03:21:58;96070.91;;;-0.11;91.19
77092;BME280;66032;48.252;11.638;2023-03-03T03:24:26;96056.44;;;-0.01;90.79
77092;BME280;66032;48.252;11.638;2023-03-03T03:26:59;96061.09;;;0.08;89.57
77092;BME280;66032;48.252;11.638;2023-03-03T03:29:27;96057.75;;;0.20;89.61
77092;BME280;66032;48.252;11.638;2023-03-03T03:31:54;96056.91;;;0.34;89.84
77092;BME280;66032;48.252;11.638;2023-03-03T03:34:21;96061.47;;;0.45;88.38
77092;BME280;66032;48.252;11.638;2023-03-03T03:36:50;96055.69;;;0.54;88.00
77092;BME280;66032;48.252;11.638;2023-03-03T03:39:20;96059.41;;;0.64;87.73
77092;BME280;66032;48.252;11.638;2023-03-03T03:41:49;96058.09;;;0.71;87.59
77092;BME280;66032;48.252;11.638;2023-03-03T03:44:17;96054.00;;;0.81;87.60
77092;BME280;66032;48.252;11.638;2023-03-03T03:46:44;96056.19;;;0.87;87.30
77092;BME280;66032;48.252;11.638;2023-03-03T03:49:11;96065.31;;;0.94;87.40
77092;BME280;66032;48.252;11.638;2023-03-03T03:51:39;96058.69;;;1.03;87.30
77092;BME280;66032;48.252;11.638;2023-03-03T03:54:11;96067.69;;;1.11;86.76
77092;BME280;66032;48.252;11.638;2023-03-03T03:56:39;96062.09;;;1.18;86.79
77092;BME280;66032;48.252;11.638;2023-03-03T03:59:07;96065.88;;;1.26;86.78
77092;BME280;66032;48.252;11.638;2023-03-03T04:01:36;96071.66;;;1.31;86.18
77092;BME280;66032;48.252;11.638;2023-03-03T04:04:04;96068.75;;;1.36;86.34
77092;BME280;66032;48.252;11.638;2023-03-03T04:06:33;96067.53;;;1.41;86.15
77092;BME280;66032;48.252;11.638;2023-03-03T04:09:00;96069.56;;;1.50;86.40
77092;BME280;66032;48.252;11.638;2023-03-03T04:11:29;96069.97;;;1.57;86.54
77092;BME280;66032;48.252;11.638;2023-03-03T04:13:56;96074.69;;;1.65;86.46
77092;BME280;66032;48.252;11.638;2023-03-03T04:16:24;96075.78;;;1.75;86.67
77092;BME280;66032;48.252;11.638;2023-03-03T04:18:51;96067.81;;;1.76;85.77
77092;BME280;66032;48.252;11.638;2023-03-03T04:21:19;96065.53;;;1.84;86.10
77092;BME280;66032;48.252;11.638;2023-03-03T04:23:49;96069.53;;;1.90;85.69
77092;BME280;66032;48.252;11.638;2023-03-03T04:26:17;96066.41;;;1.98;85.54
77092;BME280;66032;48.252;11.638;2023-03-03T04:28:46;96067.75;;;2.03;85.56
77092;BME280;66032;48.252;11.638;2023-03-03T04:31:13;96068.19;;;2.10;84.99
77092;BME280;66032;48.252;11.638;2023-03-03T04:33:40;96066.00;;;2.16;85.34
77092;BME280;66032;48.252;11.638;2023-03-03T04:36:07;96063.16;;;2.19;84.38
77092;BME280;66032;48.252;11.638;2023-03-03T04:38:36;96068.94;;;2.24;84.12
77092;BME280;66032;48.252;11.638;2023-03-03T04:41:04;96066.00;;;2.29;84.34
77092;BME280;66032;48.252;11.638;2023-03-03T04:43:35;96060.56;;;2.32;83.70
77092;BME280;66032;48.252;11.638;2023-03-03T04:46:04;96053.47;;;2.34;83.04
77092;BME280;66032;48.252;11.638;2023-03-03T04:48:32;96067.34;;;2.35;82.99
77092;BME280;66032;48.252;11.638;2023-03-03T04:50:59;96060.78;;;2.42;83.78
77092;BME280;66032;48.252;11.638;2023-03-03T04:53:26;96057.09;;;2.44;83.33
77092;BME280;66032;48.252;11.638;2023-03-03T04:55:54;96057.53;;;2.51;83.70
77092;BME280;66032;48.252;11.638;2023-03-03T04:58:21;96060.56;;;2.45;82.46
77092;BME280;66032;48.252;11.638;2023-03-03T05:00:55;96057.63;;;2.49;82.89
77092;BME280;66032;48.252;11.638;2023-03-03T05:03:25;96058.47;;;2.50;82.81
77092;BME280;66032;48.252;11.638;2023-03-03T05:05:53;96054.59;;;2.55;82.77
77092;BME280;66032;48.252;11.638;2023-03-03T05:08:20;96063.06;;;2.59;82.53
77092;BME280;66032;48.252;11.638;2023-03-03T05:10:51;96058.03;;;2.56;82.31
77092;BME280;66032;48.252;11.638;2023-03-03T05:13:19;96060.22;;;2.62;82.90
77092;BME280;66032;48.252;11.638;2023-03-03T05:15:51;96056.47;;;2.66;82.90
77092;BME280;66032;48.252;11.638;2023-03-03T05:18:19;96062.22;;;2.71;82.76
77092;BME280;66032;48.252;11.638;2023-03-03T05:20:47;96063.69;;;2.75;82.74
77092;BME280;66032;48.252;11.638;2023-03-03T05:23:15;96070.34;;;2.79;82.36
77092;BME280;66032;48.252;11.638;2023-03-03T05:25:42;96071.00;;;2.83;82.44
77092;BME280;66032;48.252;11.638;2023-03-03T05:28:10;96068.13;;;2.86;82.18
77092;BME280;66032;48.252;11.638;2023-03-03T05:30:37;96075.06;;;2.87;81.90
77092;BME280;66032;48.252;11.638;2023-03-03T05:33:05;96073.19;;;2.89;81.97
77092;BME280;66032;48.252;11.638;2023-03-03T05:35:33;96069.63;;;2.90;82.01
77092;BME280;66032;48.252;11.638;2023-03-03T05:38:00;96075.28;;;2.84;80.88
77092;BME280;66032;48.252;11.638;2023-03-03T05:40:31;96082.06;;;2.86;81.39
77092;BME280;66032;48.252;11.638;2023-03-03T05:42:58;96073.38;;;2.86;81.15
77092;BME280;66032;48.252;11.638;2023-03-03T05:45:25;96075.06;;;2.87;81.19
77092;BME280;66032;48.252;11.638;2023-03-03T05:47:53;96080.69;;;2.93;81.79
77092;BME280;66032;48.252;11.638;2023-03-03T05:50:21;96076.94;;;2.97;81.58
77092;BME280;66032;48.252;11.638;2023-03-03T05:52:50;96082.78;;;3.01;81.35
77092;BME280;66032;48.252;11.638;2023-03-03T05:55:18;96087.91;;;3.02;81.17
77092;BME280;66032;48.252;11.638;2023-03-03T05:57:46;96086.84;;;3.05;80.70
77092;BME280;66032;48.252;11.638;2023-03-03T06:00:15;96091.88;;;3.08;81.02
77092;BME280;66032;48.252;11.638;2023-03-03T06:02:42;96091.66;;;3.11;80.76
77092;BME280;66032;48.252;11.638;2023-03-03T06:05:10;96092.50;;;3.12;80.74
77092;BME280;66032;48.252;11.638;2023-03-03T06:07:38;96099.41;;;3.13;80.77
77092;BME280;66032;48.252;11.638;2023-03-03T06:10:06;96090.88;;;2.85;80.41
77092;BME280;66032;48.252;11.638;2023-03-03T06:12:36;96097.88;;;2.97;81.21
77092;BME280;66032;48.252;11.638;2023-03-03T06:15:05;96106.88;;;3.06;81.32
77092;BME280;66032;48.252;11.638;2023-03-03T06:17:33;96107.91;;;3.03;80.40
77092;BME280;66032;48.252;11.638;2023-03-03T06:20:00;96117.97;;;3.10;80.84
77092;BME280;66032;48.252;11.638;2023-03-03T06:22:28;96110.41;;;3.05;79.91
77092;BME280;66032;48.252;11.638;2023-03-03T06:24:55;96118.28;;;3.05;80.34
77092;BME280;66032;48.252;11.638;2023-03-03T06:27:22;96113.44;;;3.12;80.44
77092;BME280;66032;48.252;11.638;2023-03-03T06:29:49;96114.06;;;3.15;80.58
77092;BME280;66032;48.252;11.638;2023-03-03T06:32:16;96115.66;;;3.18;79.91
77092;BME280;66032;48.252;11.638;2023-03-03T06:34:44;96113.13;;;3.16;79.72
77092;BME280;66032;48.252;11.638;2023-03-03T06:37:11;96118.66;;;3.24;80.19
77092;BME280;66032;48.252;11.638;2023-03-03T06:39:38;96121.03;;;3.27;79.90
77092;BME280;66032;48.252;11.638;2023-03-03T06:42:05;96128.50;;;3.33;80.08
77092;BME280;66032;48.252;11.638;2023-03-03T06:44:33;96116.47;;;3.18;79.07
77092;BME280;66032;48.252;11.638;2023-03-03T06:47:00;96117.59;;;3.27;79.88
77092;BME280;66032;48.252;11.638;2023-03-03T06:49:27;96123.91;;;3.24;79.12
77092;BME280;66032;48.252;11.638;2023-03-03T06:51:55;96124.84;;;3.23;79.80
77092;BME280;66032;48.252;11.638;2023-03-03T06:54:27;96122.41;;;3.33;79.89
77092;BME280;66032;48.252;11.638;2023-03-03T06:57:14;96123.44;;;3.43;79.64
77092;BME280;66032;48.252;11.638;2023-03-03T06:59:42;96128.44;;;3.46;79.54
77092;BME280;66032;48.252;11.638;2023-03-03T07:02:15;96132.06;;;3.56;79.47
77092;BME280;66032;48.252;11.638;2023-03-03T07:04:44;96131.63;;;3.62;79.19
77092;BME280;66032;48.252;11.638;2023-03-03T07:07:19;96140.72;;;3.69;78.85
77092;BME280;66032;48.252;11.638;2023-03-03T07:09:51;96149.00;;;3.76;78.68
77092;BME280;66032;48.252;11.638;2023-03-03T07:12:21;96149.94;;;3.75;77.83
77092;BME280;66032;48.252;11.638;2023-03-03T07:14:57;96154.72;;;3.81;78.51
77092;BME280;66032;48.252;11.638;2023-03-03T07:17:29;96156.78;;;3.89;78.28
77092;BME280;66032;48.252;11.638;2023-03-03T07:19:56;96158.97;;;3.95;77.97
77092;BME280;66032;48.252;11.638;2023-03-03T07:22:26;96162.00;;;4.01;77.64
77092;BME280;66032;48.252;11.638;2023-03-03T07:24:59;96157.81;;;3.99;77.05
77092;BME280;66032;48.252;11.638;2023-03-03T07:27:30;96167.63;;;4.08;77.73
77092;BME280;66032;48.252;11.638;2023-03-03T07:30:36;96169.56;;;4.17;76.46
77092;BME280;66032;48.252;11.638;2023-03-03T07:33:07;96168.66;;;4.29;76.46
77092;BME280;66032;48.252;11.638;2023-03-03T07:35:43;96178.34;;;4.40;75.99
77092;BME280;66032;48.252;11.638;2023-03-03T07:38:23;96171.59;;;4.48;75.89
77092;BME280;66032;48.252;11.638;2023-03-03T07:40:53;96172.06;;;4.53;75.95
77092;BME280;66032;48.252;11.638;2023-03-03T07:46:38;96164.38;;;4.96;75.28
77092;BME280;66032;48.252;11.638;2023-03-03T07:49:34;96161.66;;;5.20;74.88
77092;BME280;66032;48.252;11.638;2023-03-03T07:54:47;96161.47;;;5.78;73.54
77092;BME280;66032;48.252;11.638;2023-03-03T07:57:21;96160.28;;;5.70;70.85
77092;BME280;66032;48.252;11.638;2023-03-03T07:59:51;96163.88;;;5.92;71.11
77092;BME280;66032;48.252;11.638;2023-03-03T08:02:43;96176.22;;;6.12;69.81
77092;BME280;66032;48.252;11.638;2023-03-03T08:05:26;96172.91;;;6.42;70.44
77092;BME280;66032;48.252;11.638;2023-03-03T08:10:49;96182.56;;;6.94;68.61
77092;BME280;66032;48.252;11.638;2023-03-03T08:15:49;96176.94;;;7.39;66.29
77092;BME280;66032;48.252;11.638;2023-03-03T08:18:24;96173.13;;;7.62;65.66
77092;BME280;66032;48.252;11.638;2023-03-03T08:20:56;96175.84;;;7.81;65.23
77092;BME280;66032;48.252;11.638;2023-03-03T08:23:23;96184.06;;;7.97;64.74
77092;BME280;66032;48.252;11.638;2023-03-03T08:25:51;96193.56;;;8.19;63.78
77092;BME280;66032;48.252;11.638;2023-03-03T08:28:20;96198.03;;;8.28;63.85
77092;BME280;66032;48.252;11.638;2023-03-03T08:30:48;96192.38;;;8.52;63.50
77092;BME280;66032;48.252;11.638;2023-03-03T08:33:16;96185.44;;;8.61;62.81
77092;BME280;66032;48.252;11.638;2023-03-03T08:35:44;96187.06;;;8.81;62.11
77092;BME280;66032;48.252;11.638;2023-03-03T08:38:14;96188.03;;;8.99;60.60
77092;BME280;66032;48.252;11.638;2023-03-03T08:40:42;96178.69;;;9.05;60.04
77092;BME280;66032;48.252;11.638;2023-03-03T08:43:10;96186.59;;;9.14;59.90
77092;BME280;66032;48.252;11.638;2023-03-03T08:45:50;96189.56;;;9.02;59.07
77092;BME280;66032;48.252;11.638;2023-03-03T08:48:18;96188.28;;;9.06;59.90
77092;BME280;66032;48.252;11.638;2023-03-03T08:50:46;96185.22;;;9.10;59.78
77092;BME280;66032;48.252;11.638;2023-03-03T08:53:14;96185.91;;;9.12;60.07
77092;BME280;66032;48.252;11.638;2023-03-03T08:55:41;96194.25;;;9.18;60.05
77092;BME280;66032;48.252;11.638;2023-03-03T08:58:09;96188.38;;;9.24;58.99
77092;BME280;66032;48.252;11.638;2023-03-03T09:00:36;96193.66;;;9.24;58.95
77092;BME280;66032;48.252;11.638;2023-03-03T09:03:04;96195.19;;;9.36;59.11
77092;BME280;66032;48.252;11.638;2023-03-03T09:05:35;96185.13;;;9.39;58.87
77092;BME280;66032;48.252;11.638;2023-03-03T09:08:02;96191.78;;;9.53;59.13
77092;BME280;66032;48.252;11.638;2023-03-03T09:10:30;96193.97;;;9.58;58.65
77092;BME280;66032;48.252;11.638;2023-03-03T09:13:02;96193.97;;;9.58;58.10
77092;BME280;66032;48.252;11.638;2023-03-03T09:15:36;96202.31;;;9.63;58.08
77092;BME280;66032;48.252;11.638;2023-03-03T09:18:41;96200.47;;;9.73;57.96
77092;BME280;66032;48.252;11.638;2023-03-03T09:21:20;96198.59;;;9.83;57.51
77092;BME280;66032;48.252;11.638;2023-03-03T09:23:53;96204.84;;;9.92;57.37
77092;BME280;66032;48.252;11.638;2023-03-03T09:31:43;96204.94;;;10.00;57.34
77092;BME280;66032;48.252;11.638;2023-03-03T09:37:00;96209.22;;;10.38;56.28
77092;BME280;66032;48.252;11.638;2023-03-03T09:39:29;96215.94;;;10.50;56.52
77092;BME280;66032;48.252;11.638;2023-03-03T09:45:12;96218.13;;;10.72;55.73
77092;BME280;66032;48.252;11.638;2023-03-03T09:51:12;96216.25;;;11.00;55.20
77092;BME280;66032;48.252;11.638;2023-03-03T09:56:49;96223.22;;;10.65;55.36
77092;BME280;66032;48.252;11.638;2023-03-03T09:59:41;96226.16;;;10.98;54.61
77092;BME280;66032;48.252;11.638;2023-03-03T10:11:09;96234.91;;;11.34;52.91
77092;BME280;66032;48.252;11.638;2023-03-03T10:25:28;96233.03;;;11.26;53.23
77092;BME280;66032;48.252;11.638;2023-03-03T10:30:46;96232.84;;;10.49;54.73
77092;BME280;66032;48.252;11.638;2023-03-03T10:33:41;96233.59;;;10.94;54.93
77092;BME280;66032;48.252;11.638;2023-03-03T10:41:39;96232.78;;;11.37;53.62
77092;BME280;66032;48.252;11.638;2023-03-03T10:55:40;96244.16;;;12.58;50.57
77092;BME280;66032;48.252;11.638;2023-03-03T11:06:58;96246.00;;;12.57;50.89
77092;BME280;66032;48.252;11.638;2023-03-03T11:15:34;96247.06;;;12.88;50.23
77092;BME280;66032;48.252;11.638;2023-03-03T11:26:08;96239.75;;;12.24;50.83
77092;BME280;66032;48.252;11.638;2023-03-03T11:29:08;96225.53;;;11.73;51.68
77092;BME280;66032;48.252;11.638;2023-03-03T11:31:47;96226.91;;;11.08;53.60
77092;BME280;66032;48.252;11.638;2023-03-03T11:34:43;96227.19;;;11.23;54.20
77092;BME280;66032;48.252;11.638;2023-03-03T11:37:23;96228.81;;;10.98;54.19
77092;BME280;66032;48.252;11.638;2023-03-03T11:39:54;96221.25;;;11.03;54.01
77092;BME280;66032;48.252;11.638;2023-03-03T11:45:17;96221.38;;;11.45;54.23
77092;BME280;66032;48.252;11.638;2023-03-03T11:50:22;96214.22;;;10.94;53.91
77092;BME280;66032;48.252;11.638;2023-03-03T11:55:41;96212.59;;;10.30;56.63
77092;BME280;66032;48.252;11.638;2023-03-03T11:58:20;96206.69;;;10.18;57.75
77092;BME280;66032;48.252;11.638;2023-03-03T12:01:41;96205.84;;;10.18;57.60
77092;BME280;66032;48.252;11.638;2023-03-03T12:04:33;96202.69;;;9.77;58.88
77092;BME280;66032;48.252;11.638;2023-03-03T12:12:33;96205.13;;;10.16;57.59
77092;BME280;66032;48.252;11.638;2023-03-03T12:26:14;96198.88;;;11.06;54.47
77092;BME280;66032;48.252;11.638;2023-03-03T12:37:54;96182.47;;;10.67;55.73
77092;BME280;66032;48.252;11.638;2023-03-03T12:40:29;96184.00;;;10.51;56.46
77092;BME280;66032;48.252;11.638;2023-03-03T12:43:16;96173.19;;;10.45;56.63
77092;BME280;66032;48.252;11.638;2023-03-03T12:48:55;96181.84;;;10.19;56.82
77092;BME280;66032;48.252;11.638;2023-03-03T12:51:42;96179.53;;;10.07;57.58
77092;BME280;66032;48.252;11.638;2023-03-03T13:03:07;96183.41;;;9.85;58.36
77092;BME280;66032;48.252;11.638;2023-03-03T13:09:00;96186.00;;;9.67;59.06
77092;BME280;66032;48.252;11.638;2023-03-03T13:12:02;96176.84;;;9.62;59.57
77092;BME280;66032;48.252;11.638;2023-03-03T13:14:48;96177.03;;;9.50;59.34
77092;BME280;66032;48.252;11.638;2023-03-03T13:20:33;96176.66;;;9.36;60.52
77092;BME280;66032;48.252;11.638;2023-03-03T13:23:21;96173.47;;;9.32;60.49
77092;BME280;66032;48.252;11.638;2023-03-03T13:26:36;96171.78;;;9.31;60.63
77092;BME280;66032;48.252;11.638;2023-03-03T13:31:47;96169.72;;;9.25;60.31
77092;BME280;66032;48.252;11.638;2023-03-03T13:34:40;96157.75;;;9.21;60.35
77092;BME280;66032;48.252;11.638;2023-03-03T13:37:28;96167.09;;;9.16;60.69
77092;BME280;66032;48.252;11.638;2023-03-03T13:42:48;96171.16;;;9.10;60.56
77092;BME280;66032;48.252;11.638;2023-03-03T13:48:23;96166.03;;;9.08;60.14
77092;BME280;66032;48.252;11.638;2023-03-03T13:51:00;96157.63;;;9.13;60.48
77092;BME280;66032;48.252;11.638;2023-03-03T13:56:28;96151.34;;;9.24;60.63
77092;BME280;66032;48.252;11.638;2023-03-03T14:01:51;96147.94;;;9.41;59.52
77092;BME280;66032;48.252;11.638;2023-03-03T14:05:00;96143.22;;;9.44;59.32
77092;BME280;66032;48.252;11.638;2023-03-03T14:07:39;96145.44;;;9.39;59.91
77092;BME280;66032;48.252;11.638;2023-03-03T14:10:31;96138.75;;;9.45;60.69
77092;BME280;66032;48.252;11.638;2023-03-03T14:13:11;96141.09;;;9.48;60.19
77092;BME280;66032;48.252;11.638;2023-03-03T14:20:57;96133.19;;;9.38;60.40
77092;BME280;66032;48.252;11.638;2023-03-03T14:23:52;96134.63;;;9.33;60.36
77092;BME280;66032;48.252;11.638;2023-03-03T14:26:23;96133.91;;;9.31;61.09
77092;BME280;66032;48.252;11.638;2023-03-03T14:29:04;96131.88;;;9.25;60.29
77092;BME280;66032;48.252;11.638;2023-03-03T14:31:40;96128.28;;;9.16;60.49
77092;BME280;66032;48.252;11.638;2023-03-03T14:34:38;96134.97;;;9.10;60.54
77092;BME280;66032;48.252;11.638;2023-03-03T14:37:28;96130.69;;;9.00;61.19
77092;BME280;66032;48.252;11.638;2023-03-03T14:42:36;96133.22;;;8.82;62.44
77092;BME280;66032;48.252;11.638;2023-03-03T14:45:38;96132.28;;;8.73;62.90
77092;BME280;66032;48.252;11.638;2023-03-03T14:48:17;96137.28;;;8.67;63.04
77092;BME280;66032;48.252;11.638;2023-03-03T14:50:50;96133.69;;;8.58;63.03
77092;BME280;66032;48.252;11.638;2023-03-03T14:55:47;96140.38;;;8.53;63.58
77092;BME280;66032;48.252;11.638;2023-03-03T14:58:39;96137.31;;;8.48;63.33
77092;BME280;66032;48.252;11.638;2023-03-03T15:01:23;96138.56;;;8.44;63.67
77092;BME280;66032;48.252;11.638;2023-03-03T15:06:43;96132.72;;;8.40;63.66
77092;BME280;66032;48.252;11.638;2023-03-03T15:10:06;96138.00;;;8.40;63.79
77092;BME280;66032;48.252;11.638;2023-03-03T15:17:38;96134.09;;;8.54;63.33
77092;BME280;66032;48.252;11.638;2023-03-03T15:20:17;96137.03;;;8.60;63.46
77092;BME280;66032;48.252;11.638;2023-03-03T15:22:58;96138.84;;;8.69;63.04
77092;BME280;66032;48.252;11.638;2023-03-03T15:26:09;96142.00;;;8.83;62.99
77092;BME280;66032;48.252;11.638;2023-03-03T15:31:40;96142.63;;;9.04;62.62
77092;BME280;66032;48.252;11.638;2023-03-03T15:34:23;96138.16;;;9.14;62.26
77092;BME280;66032;48.252;11.638;2023-03-03T15:42:12;96138.47;;;9.38;61.06
77092;BME280;66032;48.252;11.638;2023-03-03T15:47:26;96132.19;;;9.49;60.73
77092;BME280;66032;48.252;11.638;2023-03-03T15:53:22;96138.06;;;9.43;60.86
77092;BME280;66032;48.252;11.638;2023-03-03T16:02:16;96132.00;;;9.23;61.28
77092;BME280;66032;48.252;11.638;2023-03-03T16:07:38;96142.81;;;9.02;62.06
77092;BME280;66032;48.252;11.638;2023-03-03T16:10:31;96147.28;;;8.92;62.19
77092;BME280;66032;48.252;11.638;2023-03-03T16:24:00;96154.81;;;8.58;63.31
77092;BME280;66032;48.252;11.638;2023-03-03T16:26:53;96155.09;;;8.55;63.44
77092;BME280;66032;48.252;11.638;2023-03-03T16:38:00;96166.78;;;8.33;64.22
77092;BME280;66032;48.252;11.638;2023-03-03T16:40:35;96165.78;;;8.25;64.42
77092;BME280;66032;48.252;11.638;2023-03-03T16:45:40;96173.28;;;8.10;64.59
77092;BME280;66032;48.252;11.638;2023-03-03T16:48:36;96176.03;;;7.99;65.20
77092;BME280;66032;48.252;11.638;2023-03-03T16:56:22;96181.63;;;7.66;65.80
77092;BME280;66032;48.252;11.638;2023-03-03T17:04:41;96182.56;;;7.24;66.67
77092;BME280;66032;48.252;11.638;2023-03-03T17:10:32;96195.16;;;6.91;67.78
77092;BME280;66032;48.252;11.638;2023-03-03T17:18:49;96196.84;;;6.39;68.87
77092;BME280;66032;48.252;11.638;2023-03-03T17:21:27;96202.41;;;6.25;68.75
77092;BME280;66032;48.252;11.638;2023-03-03T17:29:34;96212.88;;;5.82;70.63
77092;BME280;66032;48.252;11.638;2023-03-03T17:41:05;96224.63;;;5.33;74.01
77092;BME280;66032;48.252;11.638;2023-03-03T17:49:27;96242.03;;;5.01;74.10
77092;BME280;66032;48.252;11.638;2023-03-03T17:52:30;96243.66;;;4.90;74.69
77092;BME280;66032;48.252;11.638;2023-03-03T18:01:21;96251.31;;;4.58;75.64
77092;BME280;66032;48.252;11.638;2023-03-03T18:04:03;96250.22;;;4.50;76.54
77092;BME280;66032;48.252;11.638;2023-03-03T18:22:57;96269.84;;;3.97;78.92
77092;BME280;66032;48.252;11.638;2023-03-03T18:25:52;96257.47;;;3.86;79.10
77092;BME280;66032;48.252;11.638;2023-03-03T18:29:04;96263.38;;;3.77;80.36